sensor_id;sensor_type;location;lat;lon;timestamp;temperature;humidity
13464;DHT22;6804;48.774;9.174;2023-07-30T00:00:29;20.40;99.90
13464;DHT22;6804;48.774;9.174;2023-07-30T00:02:59;20.40;99.90
13464;DHT22;6804;48.774;9.174;2023-07-30T00:05:28;20.40;99.90
13464;DHT22;6804;48.774;9.174;2023-07-30T00:07:57;20.40;99.90
13464;DHT22;6804;48.774;9.174;2023-07-30T00:10:25;20.40;99.90
13464;DHT22;6804;48.774;9.174;2023-07-30T00:12:55;20.40;99.90
13464;DHT22;6804;48.774;9.174;2023-07-30T00:15:24;20.30;99.90
13464;DHT22;6804;48.774;9.174;2023-07-30T00:18:01;20.20;99.90
13464;DHT22;6804;48.774;9.174;2023-07-30T00:20:29;20.20;99.90
13464;DHT22;6804;48.774;9.174;2023-07-30T00:22:56;20.10;99.90
13464;DHT22;6804;48.774;9.174;2023-07-30T00:25:44;20.10;99.90
13464;DHT22;6804;48.774;9.174;2023-07-30T00:28:14;20.00;99.90
13464;DHT22;6804;48.774;9.174;2023-07-30T00:30:42;19.90;99.90
13464;DHT22;6804;48.774;9.174;2023-07-30T00:33:12;19.90;99.90
13464;DHT22;6804;48.774;9.174;2023-07-30T00:35:40;19.90;99.90
13464;DHT22;6804;48.774;9.174;2023-07-30T00:38:11;19.90;99.90
13464;DHT22;6804;48.774;9.174;2023-07-30T00:40:40;19.90;99.90
13464;DHT22;6804;48.774;9.174;2023-07-30T00:43:08;20.00;99.90
13464;DHT22;6804;48.774;9.174;2023-07-30T00:45:37;19.90;99.90
13464;DHT22;6804;48.774;9.174;2023-07-30T00:48:09;19.90;99.90
13464;DHT22;6804;48.774;9.174;2023-07-30T00:50:39;20.00;99.90
13464;DHT22;6804;48.774;9.174;2023-07-30T00:53:09;19.90;99.90
13464;DHT22;6804;48.774;9.174;2023-07-30T00:55:42;20.00;99.90
13464;DHT22;6804;48.774;9.174;2023-07-30T00:58:10;20.00;99.90
13464;DHT22;6804;48.774;9.174;2023-07-30T01:00:41;20.00;99.90
13464;DHT22;6804;48.774;9.174;2023-07-30T01:03:09;20.00;99.90
13464;DHT22;6804;48.774;9.174;2023-07-30T01:05:39;20.00;99.90
13464;DHT22;6804;48.774;9.174;2023-07-30T01:08:07;20.00;99.90
13464;DHT22;6804;48.774;9.174;2023-07-30T01:10:35;20.00;99.90
13464;DHT22;6804;48.774;9.174;2023-07-30T01:13:05;20.10;99.90
13464;DHT22;6804;48.774;9.174;2023-07-30T01:15:33;20.10;99.90
13464;DHT22;6804;48.774;9.174;2023-07-30T01:18:01;20.00;99.90
13464;DHT22;6804;48.774;9.174;2023-07-30T01:20:30;20.00;99.90
13464;DHT22;6804;48.774;9.174;2023-07-30T01:22:59;20.00;99.90
13464;DHT22;6804;48.774;9.174;2023-07-30T01:25:29;20.00;99.90
13464;DHT22;6804;48.774;9.174;2023-07-30T01:28:00;20.10;99.90
13464;DHT22;6804;48.774;9.174;2023-07-30T01:30:30;20.10;99.90
13464;DHT22;6804;48.774;9.174;2023-07-30T01:32:59;20.10;99.90
13464;DHT22;6804;48.774;9.174;2023-07-30T01:35:29;20.10;99.90
13464;DHT22;6804;48.774;9.174;2023-07-30T01:37:59;20.20;99.90
13464;DHT22;6804;48.774;9.174;2023-07-30T01:40:30;20.20;99.90
13464;DHT22;6804;48.774;9.174;2023-07-30T01:43:01;20.20;99.90
13464;DHT22;6804;48.774;9.174;2023-07-30T01:45:31;20.20;99.90
13464;DHT22;6804;48.774;9.174;2023-07-30T01:48:00;20.20;99.90
13464;DHT22;6804;48.774;9.174;2023-07-30T01:50:27;20.20;99.90
13464;DHT22;6804;48.774;9.174;2023-07-30T01:52:59;20.10;99.90
13464;DHT22;6804;48.774;9.174;2023-07-30T01:55:26;20.00;99.90
13464;DHT22;6804;48.774;9.174;2023-07-30T01:57:54;20.00;99.90
13464;DHT22;6804;48.774;9.174;2023-07-30T02:00:21;20.00;99.90
13464;DHT22;6804;48.774;9.174;2023-07-30T02:02:48;20.10;99.90
13464;DHT22;6804;48.774;9.174;2023-07-30T02:05:16;20.10;99.90
13464;DHT22;6804;48.774;9.174;2023-07-30T02:07:44;20.10;99.90
13464;DHT22;6804;48.774;9.174;2023-07-30T02:10:12;20.10;99.90
13464;DHT22;6804;48.774;9.174;2023-07-30T02:12:40;20.10;99.90
13464;DHT22;6804;48.774;9.174;2023-07-30T02:15:08;20.00;99.90
13464;DHT22;6804;48.774;9.174;2023-07-30T02:17:43;20.00;99.90
13464;DHT22;6804;48.774;9.174;2023-07-30T02:20:13;19.90;99.90
13464;DHT22;6804;48.774;9.174;2023-07-30T02:22:43;19.90;99.90
13464;DHT22;6804;48.774;9.174;2023-07-30T02:25:14;19.90;99.90
13464;DHT22;6804;48.774;9.174;2023-07-30T02:27:43;19.90;99.90
13464;DHT22;6804;48.774;9.174;2023-07-30T02:30:14;19.90;99.90
13464;DHT22;6804;48.774;9.174;2023-07-30T02:32:42;20.00;99.90
13464;DHT22;6804;48.774;9.174;2023-07-30T02:35:10;20.00;99.90
13464;DHT22;6804;48.774;9.174;2023-07-30T02:37:39;20.00;99.90
13464;DHT22;6804;48.774;9.174;2023-07-30T02:40:08;20.00;99.90
13464;DHT22;6804;48.774;9.174;2023-07-30T02:42:37;20.00;99.90
13464;DHT22;6804;48.774;9.174;2023-07-30T02:45:05;20.10;99.90
13464;DHT22;6804;48.774;9.174;2023-07-30T02:47:33;20.00;99.90
13464;DHT22;6804;48.774;9.174;2023-07-30T02:50:00;20.00;99.90
13464;DHT22;6804;48.774;9.174;2023-07-30T02:52:28;20.00;99.90
13464;DHT22;6804;48.774;9.174;2023-07-30T02:54:55;20.00;99.90
13464;DHT22;6804;48.774;9.174;2023-07-30T02:57:25;20.00;99.90
13464;DHT22;6804;48.774;9.174;2023-07-30T02:59:57;20.00;99.90
13464;DHT22;6804;48.774;9.174;2023-07-30T03:02:27;19.90;99.90
13464;DHT22;6804;48.774;9.174;2023-07-30T03:04:54;19.90;99.90
13464;DHT22;6804;48.774;9.174;2023-07-30T03:07:22;19.90;99.90
13464;DHT22;6804;48.774;9.174;2023-07-30T03:09:50;19.90;99.90
13464;DHT22;6804;48.774;9.174;2023-07-30T03:12:19;19.90;99.90
13464;DHT22;6804;48.774;9.174;2023-07-30T03:14:46;19.90;99.90
13464;DHT22;6804;48.774;9.174;2023-07-30T03:17:16;19.90;99.90
13464;DHT22;6804;48.774;9.174;2023-07-30T03:19:51;19.90;99.90
13464;DHT22;6804;48.774;9.174;2023-07-30T03:22:18;19.90;99.90
13464;DHT22;6804;48.774;9.174;2023-07-30T03:24:46;19.90;99.90
13464;DHT22;6804;48.774;9.174;2023-07-30T03:27:16;19.90;99.90
13464;DHT22;6804;48.774;9.174;2023-07-30T03:29:46;19.90;99.90
13464;DHT22;6804;48.774;9.174;2023-07-30T03:32:17;19.90;99.90
13464;DHT22;6804;48.774;9.174;2023-07-30T03:34:47;19.90;99.90
13464;DHT22;6804;48.774;9.174;2023-07-30T03:37:15;19.90;99.90
13464;DHT22;6804;48.774;9.174;2023-07-30T03:39:48;19.90;99.90
13464;DHT22;6804;48.774;9.174;2023-07-30T03:42:15;19.90;99.90
13464;DHT22;6804;48.774;9.174;2023-07-30T03:44:45;19.90;99.90
13464;DHT22;6804;48.774;9.174;2023-07-30T03:47:16;19.80;99.90
13464;DHT22;6804;48.774;9.174;2023-07-30T03:49:47;19.80;99.90
13464;DHT22;6804;48.774;9.174;2023-07-30T03:52:18;19.70;99.90
13464;DHT22;6804;48.774;9.174;2023-07-30T03:54:46;19.80;99.90
13464;DHT22;6804;48.774;9.174;2023-07-30T04:00:17;19.80;99.90
13464;DHT22;6804;48.774;9.174;2023-07-30T04:02:49;19.80;99.90
13464;DHT22;6804;48.774;9.174;2023-07-30T04:05:19;19.90;99.90
13464;DHT22;6804;48.774;9.174;2023-07-30T04:07:49;19.80;99.90
13464;DHT22;6804;48.774;9.174;2023-07-30T04:10:17;19.80;99.90
13464;DHT22;6804;48.774;9.174;2023-07-30T04:12:48;19.80;99.90
13464;DHT22;6804;48.774;9.174;2023-07-30T04:15:16;19.80;99.90
13464;DHT22;6804;48.774;9.174;2023-07-30T04:18:05;19.80;99.90
13464;DHT22;6804;48.774;9.174;2023-07-30T04:20:32;19.80;99.90
13464;DHT22;6804;48.774;9.174;2023-07-30T04:23:00;19.80;99.90
13464;DHT22;6804;48.774;9.174;2023-07-30T04:25:27;19.80;99.90
13464;DHT22;6804;48.774;9.174;2023-07-30T04:27:59;19.80;99.90
13464;DHT22;6804;48.774;9.174;2023-07-30T04:30:27;19.70;99.90
13464;DHT22;6804;48.774;9.174;2023-07-30T04:33:02;19.70;99.90
13464;DHT22;6804;48.774;9.174;2023-07-30T04:35:36;19.80;99.90
13464;DHT22;6804;48.774;9.174;2023-07-30T04:38:07;19.70;99.90
13464;DHT22;6804;48.774;9.174;2023-07-30T04:40:40;19.70;99.90
13464;DHT22;6804;48.774;9.174;2023-07-30T04:43:08;19.70;99.90
13464;DHT22;6804;48.774;9.174;2023-07-30T04:45:38;19.70;99.90
13464;DHT22;6804;48.774;9.174;2023-07-30T04:48:29;19.70;99.90
13464;DHT22;6804;48.774;9.174;2023-07-30T04:51:00;19.70;99.90
13464;DHT22;6804;48.774;9.174;2023-07-30T04:53:29;19.80;99.90
13464;DHT22;6804;48.774;9.174;2023-07-30T04:55:58;19.70;99.90
13464;DHT22;6804;48.774;9.174;2023-07-30T04:58:47;19.80;99.90
13464;DHT22;6804;48.774;9.174;2023-07-30T05:01:17;19.80;99.90
13464;DHT22;6804;48.774;9.174;2023-07-30T05:03:49;19.80;99.90
13464;DHT22;6804;48.774;9.174;2023-07-30T05:06:20;19.80;99.90
13464;DHT22;6804;48.774;9.174;2023-07-30T05:08:50;19.80;99.90
13464;DHT22;6804;48.774;9.174;2023-07-30T05:11:21;19.80;99.90
13464;DHT22;6804;48.774;9.174;2023-07-30T05:13:51;19.80;99.90
13464;DHT22;6804;48.774;9.174;2023-07-30T05:16:19;19.90;99.90
13464;DHT22;6804;48.774;9.174;2023-07-30T05:18:51;19.90;99.90
13464;DHT22;6804;48.774;9.174;2023-07-30T05:21:21;19.90;99.90
13464;DHT22;6804;48.774;9.174;2023-07-30T05:23:48;19.90;99.90
13464;DHT22;6804;48.774;9.174;2023-07-30T05:26:20;19.90;99.90
13464;DHT22;6804;48.774;9.174;2023-07-30T05:28:50;19.90;99.90
13464;DHT22;6804;48.774;9.174;2023-07-30T05:31:20;19.90;99.90
13464;DHT22;6804;48.774;9.174;2023-07-30T05:33:48;19.90;99.90
13464;DHT22;6804;48.774;9.174;2023-07-30T05:36:16;19.90;99.90
13464;DHT22;6804;48.774;9.174;2023-07-30T05:38:45;19.80;99.90
13464;DHT22;6804;48.774;9.174;2023-07-30T05:41:13;19.90;99.90
13464;DHT22;6804;48.774;9.174;2023-07-30T05:43:41;19.90;99.90
13464;DHT22;6804;48.774;9.174;2023-07-30T05:46:10;19.90;99.90
13464;DHT22;6804;48.774;9.174;2023-07-30T05:48:42;19.90;99.90
13464;DHT22;6804;48.774;9.174;2023-07-30T05:51:09;20.00;99.90
13464;DHT22;6804;48.774;9.174;2023-07-30T05:53:40;19.90;99.90
13464;DHT22;6804;48.774;9.174;2023-07-30T05:56:12;20.00;99.90
13464;DHT22;6804;48.774;9.174;2023-07-30T05:58:40;19.90;99.90
13464;DHT22;6804;48.774;9.174;2023-07-30T06:01:07;19.90;99.90
13464;DHT22;6804;48.774;9.174;2023-07-30T06:03:42;20.00;99.90
13464;DHT22;6804;48.774;9.174;2023-07-30T06:06:13;19.90;99.90
13464;DHT22;6804;48.774;9.174;2023-07-30T06:08:42;20.00;99.90
13464;DHT22;6804;48.774;9.174;2023-07-30T06:11:13;20.00;99.90
13464;DHT22;6804;48.774;9.174;2023-07-30T06:13:41;20.10;99.90
13464;DHT22;6804;48.774;9.174;2023-07-30T06:16:11;20.20;99.90
13464;DHT22;6804;48.774;9.174;2023-07-30T06:18:41;20.20;99.90
13464;DHT22;6804;48.774;9.174;2023-07-30T06:21:11;20.30;99.90
13464;DHT22;6804;48.774;9.174;2023-07-30T06:23:41;20.30;99.90
13464;DHT22;6804;48.774;9.174;2023-07-30T06:26:10;20.40;99.90
13464;DHT22;6804;48.774;9.174;2023-07-30T06:31:51;20.40;99.90
13464;DHT22;6804;48.774;9.174;2023-07-30T06:34:22;20.40;99.90
13464;DHT22;6804;48.774;9.174;2023-07-30T06:36:50;20.40;99.90
13464;DHT22;6804;48.774;9.174;2023-07-30T06:39:36;20.40;99.90
13464;DHT22;6804;48.774;9.174;2023-07-30T06:42:10;20.50;99.90
13464;DHT22;6804;48.774;9.174;2023-07-30T06:44:59;20.70;99.90
13464;DHT22;6804;48.774;9.174;2023-07-30T06:47:29;21.10;99.90
13464;DHT22;6804;48.774;9.174;2023-07-30T06:50:01;21.20;99.90
13464;DHT22;6804;48.774;9.174;2023-07-30T06:52:33;21.30;99.90
13464;DHT22;6804;48.774;9.174;2023-07-30T06:55:03;21.40;99.90
13464;DHT22;6804;48.774;9.174;2023-07-30T06:57:32;21.30;99.90
13464;DHT22;6804;48.774;9.174;2023-07-30T07:00:01;21.20;99.90
13464;DHT22;6804;48.774;9.174;2023-07-30T07:02:34;21.20;99.90
13464;DHT22;6804;48.774;9.174;2023-07-30T07:05:03;21.10;99.90
13464;DHT22;6804;48.774;9.174;2023-07-30T07:07:31;21.10;99.90
13464;DHT22;6804;48.774;9.174;2023-07-30T07:10:03;21.10;99.90
13464;DHT22;6804;48.774;9.174;2023-07-30T07:12:37;21.00;99.90
13464;DHT22;6804;48.774;9.174;2023-07-30T07:15:08;21.00;99.90
13464;DHT22;6804;48.774;9.174;2023-07-30T07:17:39;21.00;99.90
13464;DHT22;6804;48.774;9.174;2023-07-30T07:20:09;21.00;99.90
13464;DHT22;6804;48.774;9.174;2023-07-30T07:22:42;21.00;99.90
13464;DHT22;6804;48.774;9.174;2023-07-30T07:25:11;21.00;99.90
13464;DHT22;6804;48.774;9.174;2023-07-30T07:27:46;20.90;99.90
13464;DHT22;6804;48.774;9.174;2023-07-30T07:30:14;21.00;99.90
13464;DHT22;6804;48.774;9.174;2023-07-30T07:32:43;21.00;99.90
13464;DHT22;6804;48.774;9.174;2023-07-30T07:35:15;20.90;99.90
13464;DHT22;6804;48.774;9.174;2023-07-30T07:37:43;20.90;99.90
13464;DHT22;6804;48.774;9.174;2023-07-30T07:40:13;20.90;99.90
13464;DHT22;6804;48.774;9.174;2023-07-30T07:42:41;20.80;99.90
13464;DHT22;6804;48.774;9.174;2023-07-30T07:45:17;20.70;99.90
13464;DHT22;6804;48.774;9.174;2023-07-30T07:47:47;20.70;99.90
13464;DHT22;6804;48.774;9.174;2023-07-30T07:50:32;20.60;99.90
13464;DHT22;6804;48.774;9.174;2023-07-30T07:53:04;20.60;99.90
13464;DHT22;6804;48.774;9.174;2023-07-30T07:58:38;20.60;99.90
13464;DHT22;6804;48.774;9.174;2023-07-30T08:01:11;20.60;99.90
13464;DHT22;6804;48.774;9.174;2023-07-30T08:03:38;20.70;99.90
13464;DHT22;6804;48.774;9.174;2023-07-30T08:06:12;20.70;99.90
13464;DHT22;6804;48.774;9.174;2023-07-30T08:12:07;20.80;99.90
13464;DHT22;6804;48.774;9.174;2023-07-30T08:14:38;20.90;99.90
13464;DHT22;6804;48.774;9.174;2023-07-30T08:17:07;21.00;99.90
13464;DHT22;6804;48.774;9.174;2023-07-30T08:19:36;21.10;99.90
13464;DHT22;6804;48.774;9.174;2023-07-30T08:22:04;21.20;99.90
13464;DHT22;6804;48.774;9.174;2023-07-30T08:24:53;21.20;99.90
13464;DHT22;6804;48.774;9.174;2023-07-30T08:27:27;21.40;99.90
13464;DHT22;6804;48.774;9.174;2023-07-30T08:29:54;21.40;99.90
13464;DHT22;6804;48.774;9.174;2023-07-30T08:32:27;21.60;99.90
13464;DHT22;6804;48.774;9.174;2023-07-30T08:34:55;21.70;99.90
13464;DHT22;6804;48.774;9.174;2023-07-30T08:37:26;21.80;99.90
13464;DHT22;6804;48.774;9.174;2023-07-30T08:39:57;21.90;99.90
13464;DHT22;6804;48.774;9.174;2023-07-30T08:42:29;22.00;99.90
13464;DHT22;6804;48.774;9.174;2023-07-30T08:45:00;22.10;99.90
13464;DHT22;6804;48.774;9.174;2023-07-30T08:47:48;22.20;99.90
13464;DHT22;6804;48.774;9.174;2023-07-30T08:50:15;22.30;99.90
13464;DHT22;6804;48.774;9.174;2023-07-30T08:52:46;22.40;99.90
13464;DHT22;6804;48.774;9.174;2023-07-30T08:55:15;22.50;99.90
13464;DHT22;6804;48.774;9.174;2023-07-30T08:58:05;22.50;99.90
13464;DHT22;6804;48.774;9.174;2023-07-30T09:00:36;22.40;99.90
13464;DHT22;6804;48.774;9.174;2023-07-30T09:03:09;22.40;99.90
13464;DHT22;6804;48.774;9.174;2023-07-30T09:05:39;22.50;99.90
13464;DHT22;6804;48.774;9.174;2023-07-30T09:08:09;22.50;99.90
13464;DHT22;6804;48.774;9.174;2023-07-30T09:10:37;22.50;99.90
13464;DHT22;6804;48.774;9.174;2023-07-30T09:13:05;22.50;99.90
13464;DHT22;6804;48.774;9.174;2023-07-30T09:15:35;22.50;99.90
13464;DHT22;6804;48.774;9.174;2023-07-30T09:18:25;22.60;99.90
13464;DHT22;6804;48.774;9.174;2023-07-30T09:20:55;22.70;99.90
13464;DHT22;6804;48.774;9.174;2023-07-30T09:23:23;22.70;99.90
13464;DHT22;6804;48.774;9.174;2023-07-30T09:25:55;22.70;99.90
13464;DHT22;6804;48.774;9.174;2023-07-30T09:28:31;22.80;99.90
13464;DHT22;6804;48.774;9.174;2023-07-30T09:31:00;22.80;99.90
13464;DHT22;6804;48.774;9.174;2023-07-30T09:33:52;22.70;99.90
13464;DHT22;6804;48.774;9.174;2023-07-30T09:36:20;22.70;99.90
13464;DHT22;6804;48.774;9.174;2023-07-30T09:38:48;22.70;99.90
13464;DHT22;6804;48.774;9.174;2023-07-30T09:41:16;22.60;99.90
13464;DHT22;6804;48.774;9.174;2023-07-30T09:44:08;22.50;99.90
13464;DHT22;6804;48.774;9.174;2023-07-30T09:46:48;22.40;99.90
13464;DHT22;6804;48.774;9.174;2023-07-30T09:49:19;22.40;99.90
13464;DHT22;6804;48.774;9.174;2023-07-30T09:51:47;22.30;99.90
13464;DHT22;6804;48.774;9.174;2023-07-30T09:54:16;22.20;99.90
13464;DHT22;6804;48.774;9.174;2023-07-30T09:56:44;22.20;99.90
13464;DHT22;6804;48.774;9.174;2023-07-30T09:59:20;22.20;99.90
13464;DHT22;6804;48.774;9.174;2023-07-30T10:01:49;22.20;99.90
13464;DHT22;6804;48.774;9.174;2023-07-30T10:04:21;22.30;99.90
13464;DHT22;6804;48.774;9.174;2023-07-30T10:06:53;22.30;99.90
13464;DHT22;6804;48.774;9.174;2023-07-30T10:09:25;22.40;99.90
13464;DHT22;6804;48.774;9.174;2023-07-30T10:11:58;22.50;99.90
13464;DHT22;6804;48.774;9.174;2023-07-30T10:14:30;22.50;99.90
13464;DHT22;6804;48.774;9.174;2023-07-30T10:17:00;22.40;99.90
13464;DHT22;6804;48.774;9.174;2023-07-30T10:19:29;22.40;99.90
13464;DHT22;6804;48.774;9.174;2023-07-30T10:22:20;22.50;99.90
13464;DHT22;6804;48.774;9.174;2023-07-30T10:24:58;22.60;99.90
13464;DHT22;6804;48.774;9.174;2023-07-30T10:27:36;22.50;99.90
13464;DHT22;6804;48.774;9.174;2023-07-30T10:30:11;22.40;99.90
13464;DHT22;6804;48.774;9.174;2023-07-30T10:32:58;22.30;99.90
13464;DHT22;6804;48.774;9.174;2023-07-30T10:35:41;22.40;99.90
13464;DHT22;6804;48.774;9.174;2023-07-30T10:38:22;22.60;99.90
13464;DHT22;6804;48.774;9.174;2023-07-30T10:41:05;22.80;99.90
13464;DHT22;6804;48.774;9.174;2023-07-30T10:43:36;23.10;99.90
13464;DHT22;6804;48.774;9.174;2023-07-30T10:46:13;23.30;99.90
13464;DHT22;6804;48.774;9.174;2023-07-30T10:48:48;23.30;99.90
13464;DHT22;6804;48.774;9.174;2023-07-30T10:51:20;23.40;99.90
13464;DHT22;6804;48.774;9.174;2023-07-30T10:53:51;23.40;99.90
13464;DHT22;6804;48.774;9.174;2023-07-30T10:56:23;23.40;99.90
13464;DHT22;6804;48.774;9.174;2023-07-30T10:59:20;23.40;99.90
13464;DHT22;6804;48.774;9.174;2023-07-30T11:01:48;23.60;99.90
13464;DHT22;6804;48.774;9.174;2023-07-30T11:04:19;23.80;99.90
13464;DHT22;6804;48.774;9.174;2023-07-30T11:07:07;24.00;99.90
13464;DHT22;6804;48.774;9.174;2023-07-30T11:09:42;24.20;99.90
13464;DHT22;6804;48.774;9.174;2023-07-30T11:12:10;24.20;99.90
13464;DHT22;6804;48.774;9.174;2023-07-30T11:14:39;23.90;99.90
13464;DHT22;6804;48.774;9.174;2023-07-30T11:17:09;23.70;99.90
13464;DHT22;6804;48.774;9.174;2023-07-30T11:19:43;23.60;99.90
13464;DHT22;6804;48.774;9.174;2023-07-30T11:22:13;23.40;99.90
13464;DHT22;6804;48.774;9.174;2023-07-30T11:24:42;23.30;99.90
13464;DHT22;6804;48.774;9.174;2023-07-30T11:27:10;23.20;99.90
13464;DHT22;6804;48.774;9.174;2023-07-30T11:29:38;23.00;99.90
13464;DHT22;6804;48.774;9.174;2023-07-30T11:32:09;23.10;99.90
13464;DHT22;6804;48.774;9.174;2023-07-30T11:34:56;23.10;99.90
13464;DHT22;6804;48.774;9.174;2023-07-30T11:37:48;23.20;99.90
13464;DHT22;6804;48.774;9.174;2023-07-30T11:40:17;23.40;99.90
13464;DHT22;6804;48.774;9.174;2023-07-30T11:42:45;23.40;99.90
13464;DHT22;6804;48.774;9.174;2023-07-30T11:45:24;23.60;99.90
13464;DHT22;6804;48.774;9.174;2023-07-30T11:48:10;23.70;99.90
13464;DHT22;6804;48.774;9.174;2023-07-30T11:50:45;23.90;99.90
13464;DHT22;6804;48.774;9.174;2023-07-30T11:53:19;24.00;99.90
13464;DHT22;6804;48.774;9.174;2023-07-30T11:55:47;24.00;99.90
13464;DHT22;6804;48.774;9.174;2023-07-30T11:58:20;24.10;99.90
13464;DHT22;6804;48.774;9.174;2023-07-30T12:00:51;24.10;99.90
13464;DHT22;6804;48.774;9.174;2023-07-30T12:03:23;23.90;99.90
13464;DHT22;6804;48.774;9.174;2023-07-30T12:05:51;24.00;99.90
13464;DHT22;6804;48.774;9.174;2023-07-30T12:08:26;24.00;99.90
13464;DHT22;6804;48.774;9.174;2023-07-30T12:11:04;24.00;99.90
13464;DHT22;6804;48.774;9.174;2023-07-30T12:13:34;24.00;99.90
13464;DHT22;6804;48.774;9.174;2023-07-30T12:16:03;24.00;99.90
13464;DHT22;6804;48.774;9.174;2023-07-30T12:18:32;24.00;99.90
13464;DHT22;6804;48.774;9.174;2023-07-30T12:21:02;24.10;99.90
13464;DHT22;6804;48.774;9.174;2023-07-30T12:23:34;24.20;99.90
13464;DHT22;6804;48.774;9.174;2023-07-30T12:26:03;24.30;99.90
13464;DHT22;6804;48.774;9.174;2023-07-30T12:28:33;24.40;99.90
13464;DHT22;6804;48.774;9.174;2023-07-30T12:31:01;24.60;99.90
13464;DHT22;6804;48.774;9.174;2023-07-30T12:36:34;24.90;99.90
13464;DHT22;6804;48.774;9.174;2023-07-30T12:39:06;24.90;99.90
13464;DHT22;6804;48.774;9.174;2023-07-30T12:41:40;24.90;99.90
13464;DHT22;6804;48.774;9.174;2023-07-30T12:44:13;24.90;99.90
13464;DHT22;6804;48.774;9.174;2023-07-30T12:46:42;25.00;99.90
13464;DHT22;6804;48.774;9.174;2023-07-30T12:49:30;25.00;99.90
13464;DHT22;6804;48.774;9.174;2023-07-30T12:52:06;25.10;99.90
13464;DHT22;6804;48.774;9.174;2023-07-30T12:54:37;25.00;99.90
13464;DHT22;6804;48.774;9.174;2023-07-30T12:57:11;25.00;99.90
13464;DHT22;6804;48.774;9.174;2023-07-30T12:59:58;24.90;99.90
13464;DHT22;6804;48.774;9.174;2023-07-30T13:02:32;24.90;99.90
13464;DHT22;6804;48.774;9.174;2023-07-30T13:05:20;24.80;99.90
13464;DHT22;6804;48.774;9.174;2023-07-30T13:07:52;24.70;99.90
13464;DHT22;6804;48.774;9.174;2023-07-30T13:10:32;24.70;99.90
13464;DHT22;6804;48.774;9.174;2023-07-30T13:13:04;24.60;99.90
13464;DHT22;6804;48.774;9.174;2023-07-30T13:15:34;24.50;99.90
13464;DHT22;6804;48.774;9.174;2023-07-30T13:18:07;24.30;99.90
13464;DHT22;6804;48.774;9.174;2023-07-30T13:20:41;24.10;99.90
13464;DHT22;6804;48.774;9.174;2023-07-30T13:23:08;24.10;99.90
13464;DHT22;6804;48.774;9.174;2023-07-30T13:25:44;24.00;99.90
13464;DHT22;6804;48.774;9.174;2023-07-30T13:28:12;24.00;99.90
13464;DHT22;6804;48.774;9.174;2023-07-30T13:30:43;24.20;99.90
13464;DHT22;6804;48.774;9.174;2023-07-30T13:33:30;24.30;99.90
13464;DHT22;6804;48.774;9.174;2023-07-30T13:36:04;24.40;99.90
13464;DHT22;6804;48.774;9.174;2023-07-30T13:38:33;24.50;99.90
13464;DHT22;6804;48.774;9.174;2023-07-30T13:41:05;24.50;99.90
13464;DHT22;6804;48.774;9.174;2023-07-30T13:43:34;24.40;99.90
13464;DHT22;6804;48.774;9.174;2023-07-30T13:46:20;24.50;99.90
13464;DHT22;6804;48.774;9.174;2023-07-30T13:48:53;24.40;99.90
13464;DHT22;6804;48.774;9.174;2023-07-30T13:51:25;24.50;99.90
13464;DHT22;6804;48.774;9.174;2023-07-30T13:53:58;24.50;99.90
13464;DHT22;6804;48.774;9.174;2023-07-30T13:56:37;24.60;99.90
13464;DHT22;6804;48.774;9.174;2023-07-30T13:59:05;24.70;99.90
13464;DHT22;6804;48.774;9.174;2023-07-30T14:01:36;24.80;99.90
13464;DHT22;6804;48.774;9.174;2023-07-30T14:04:05;25.00;99.90
13464;DHT22;6804;48.774;9.174;2023-07-30T14:06:34;25.10;99.90
13464;DHT22;6804;48.774;9.174;2023-07-30T14:09:03;25.20;99.90
13464;DHT22;6804;48.774;9.174;2023-07-30T14:11:34;25.30;99.90
13464;DHT22;6804;48.774;9.174;2023-07-30T14:14:07;25.20;99.90
13464;DHT22;6804;48.774;9.174;2023-07-30T14:16:35;25.00;99.90
13464;DHT22;6804;48.774;9.174;2023-07-30T14:19:08;24.80;99.90
13464;DHT22;6804;48.774;9.174;2023-07-30T14:21:36;24.70;99.90
13464;DHT22;6804;48.774;9.174;2023-07-30T14:24:06;24.60;99.90
13464;DHT22;6804;48.774;9.174;2023-07-30T14:26:55;24.40;99.90
13464;DHT22;6804;48.774;9.174;2023-07-30T14:29:28;24.30;99.90
13464;DHT22;6804;48.774;9.174;2023-07-30T14:31:57;24.30;99.90
13464;DHT22;6804;48.774;9.174;2023-07-30T14:34:26;24.30;99.90
13464;DHT22;6804;48.774;9.174;2023-07-30T14:36:54;24.30;99.90
13464;DHT22;6804;48.774;9.174;2023-07-30T14:39:26;24.40;99.90
13464;DHT22;6804;48.774;9.174;2023-07-30T14:41:58;24.40;99.90
13464;DHT22;6804;48.774;9.174;2023-07-30T14:44:29;24.50;99.90
13464;DHT22;6804;48.774;9.174;2023-07-30T14:46:59;24.60;99.90
13464;DHT22;6804;48.774;9.174;2023-07-30T14:49:29;24.70;99.90
13464;DHT22;6804;48.774;9.174;2023-07-30T14:51:57;24.70;99.90
13464;DHT22;6804;48.774;9.174;2023-07-30T14:54:25;24.70;99.90
13464;DHT22;6804;48.774;9.174;2023-07-30T14:57:12;24.70;99.90
13464;DHT22;6804;48.774;9.174;2023-07-30T14:59:46;24.80;99.90
13464;DHT22;6804;48.774;9.174;2023-07-30T15:02:16;24.80;99.90
13464;DHT22;6804;48.774;9.174;2023-07-30T15:04:48;24.90;99.90
13464;DHT22;6804;48.774;9.174;2023-07-30T15:07:17;24.80;99.90
13464;DHT22;6804;48.774;9.174;2023-07-30T15:09:48;24.60;99.90
13464;DHT22;6804;48.774;9.174;2023-07-30T15:12:17;24.50;99.90
13464;DHT22;6804;48.774;9.174;2023-07-30T15:14:47;24.50;99.90
13464;DHT22;6804;48.774;9.174;2023-07-30T15:17:19;24.50;99.90
13464;DHT22;6804;48.774;9.174;2023-07-30T15:19:47;24.40;99.90
13464;DHT22;6804;48.774;9.174;2023-07-30T15:22:16;24.40;99.90
13464;DHT22;6804;48.774;9.174;2023-07-30T15:25:28;24.40;99.90
13464;DHT22;6804;48.774;9.174;2023-07-30T15:27:59;24.40;99.90
13464;DHT22;6804;48.774;9.174;2023-07-30T15:30:27;24.30;99.50
13464;DHT22;6804;48.774;9.174;2023-07-30T15:32:59;24.10;98.90
13464;DHT22;6804;48.774;9.174;2023-07-30T15:35:28;24.10;98.80
13464;DHT22;6804;48.774;9.174;2023-07-30T15:37:58;24.10;98.60
13464;DHT22;6804;48.774;9.174;2023-07-30T15:40:27;24.00;98.40
13464;DHT22;6804;48.774;9.174;2023-07-30T15:42:57;24.00;98.00
13464;DHT22;6804;48.774;9.174;2023-07-30T15:45:28;24.00;97.60
13464;DHT22;6804;48.774;9.174;2023-07-30T15:47:59;23.90;97.70
13464;DHT22;6804;48.774;9.174;2023-07-30T15:50:27;24.00;97.70
13464;DHT22;6804;48.774;9.174;2023-07-30T15:52:58;24.00;97.60
13464;DHT22;6804;48.774;9.174;2023-07-30T15:55:32;24.00;97.30
13464;DHT22;6804;48.774;9.174;2023-07-30T15:58:04;24.00;97.20
13464;DHT22;6804;48.774;9.174;2023-07-30T16:00:32;24.00;97.30
13464;DHT22;6804;48.774;9.174;2023-07-30T16:03:02;24.00;97.10
13464;DHT22;6804;48.774;9.174;2023-07-30T16:05:32;23.80;96.60
13464;DHT22;6804;48.774;9.174;2023-07-30T16:08:02;23.80;96.80
13464;DHT22;6804;48.774;9.174;2023-07-30T16:10:39;23.80;97.00
13464;DHT22;6804;48.774;9.174;2023-07-30T16:13:09;23.80;96.80
13464;DHT22;6804;48.774;9.174;2023-07-30T16:15:42;23.80;96.90
13464;DHT22;6804;48.774;9.174;2023-07-30T16:18:11;23.80;97.00
13464;DHT22;6804;48.774;9.174;2023-07-30T16:20:39;23.80;96.80
13464;DHT22;6804;48.774;9.174;2023-07-30T16:23:07;23.80;97.00
13464;DHT22;6804;48.774;9.174;2023-07-30T16:25:54;23.80;96.40
13464;DHT22;6804;48.774;9.174;2023-07-30T16:28:27;23.70;95.90